createdAt,value
2018-10-17T00:00:51.558Z,33.20
2018-10-17T00:01:51.524Z,35.80
2018-10-17T00:02:51.495Z,35.80
2018-10-17T00:03:51.468Z,33.90
2018-10-17T00:04:51.473Z,30.80
2018-10-17T00:05:51.415Z,31.70
2018-10-17T00:06:51.431Z,35.50
2018-10-17T00:07:51.362Z,33.00
2018-10-17T00:08:51.334Z,38.90
2018-10-17T00:09:51.309Z,33.10
2018-10-17T00:10:51.298Z,32.70
2018-10-17T00:11:51.255Z,30.20
2018-10-17T00:12:51.229Z,34.40
2018-10-17T00:13:51.201Z,32.80
2018-10-17T00:14:51.173Z,32.50
2018-10-17T00:15:51.145Z,31.30
2018-10-17T00:16:51.144Z,30.80
2018-10-17T00:17:51.095Z,31.60
2018-10-17T00:18:51.068Z,32.70
2018-10-17T00:19:51.040Z,31.40
2018-10-17T00:20:51.015Z,37.20
2018-10-17T00:21:50.986Z,37.80
2018-10-17T00:22:50.962Z,32.60
2018-10-17T00:23:50.932Z,31.70
2018-10-17T00:24:50.961Z,34.00
2018-10-17T00:25:50.878Z,32.70
2018-10-17T00:26:50.851Z,32.00
2018-10-17T00:27:50.824Z,33.50
2018-10-17T00:28:50.799Z,34.50
2018-10-17T00:29:50.770Z,37.60
2018-10-17T00:30:50.764Z,35.20
2018-10-17T00:31:50.715Z,32.50
2018-10-17T00:32:50.689Z,32.30
2018-10-17T00:33:50.663Z,32.00
2018-10-17T00:34:50.635Z,40.30
2018-10-17T00:35:50.607Z,35.50
2018-10-17T00:36:50.624Z,34.60
2018-10-17T00:37:50.565Z,36.30
2018-10-17T00:38:50.527Z,33.20
2018-10-17T00:39:50.500Z,31.60
2018-10-17T00:40:50.476Z,31.90
2018-10-17T00:41:50.446Z,33.00
2018-10-17T00:42:50.419Z,37.30
2018-10-17T00:43:50.392Z,32.90
2018-10-17T00:44:50.368Z,31.50
2018-10-17T00:45:50.338Z,38.30
2018-10-17T00:46:50.310Z,31.20
2018-10-17T00:47:50.284Z,39.90
2018-10-17T00:48:50.256Z,34.30
2018-10-17T00:49:50.231Z,37.30
2018-10-17T00:50:50.202Z,41.40
2018-10-17T00:51:50.176Z,39.00
2018-10-17T00:52:50.148Z,33.90
2018-10-17T00:53:50.123Z,34.60
2018-10-17T00:54:50.094Z,36.00
2018-10-17T00:55:50.069Z,42.10
2018-10-17T00:56:50.043Z,39.20
2018-10-17T00:57:50.014Z,42.70
2018-10-17T00:58:49.985Z,44.00
2018-10-17T00:59:49.961Z,38.30
2018-10-17T01:00:49.933Z,41.40
2018-10-17T01:01:49.908Z,40.80
2018-10-17T01:02:49.881Z,33.10
2018-10-17T01:03:49.852Z,33.50
2018-10-17T01:04:49.825Z,37.50
2018-10-17T01:05:49.800Z,40.60
2018-10-17T01:06:49.771Z,45.20
2018-10-17T01:07:49.743Z,39.00
2018-10-17T01:08:49.718Z,41.80
2018-10-17T01:09:49.692Z,41.80
2018-10-17T01:10:49.662Z,42.90
2018-10-17T01:11:49.636Z,40.50
2018-10-17T01:12:49.610Z,37.40
2018-10-17T01:13:49.583Z,40.70
2018-10-17T01:14:49.552Z,42.60
2018-10-17T01:15:49.527Z,48.50
2018-10-17T01:16:49.500Z,42.20
2018-10-17T01:17:49.474Z,44.50
2018-10-17T01:18:49.446Z,40.60
2018-10-17T01:19:49.419Z,47.20
2018-10-17T01:20:49.393Z,44.60
2018-10-17T01:21:49.364Z,38.60
2018-10-17T01:22:49.337Z,42.10
2018-10-17T01:23:49.311Z,46.80
2018-10-17T01:24:49.283Z,46.20
2018-10-17T01:25:49.257Z,47.90
2018-10-17T01:26:49.229Z,51.00
2018-10-17T01:27:49.201Z,48.40
2018-10-17T01:28:49.175Z,44.40
2018-10-17T01:29:49.149Z,44.00
2018-10-17T01:30:49.121Z,40.80
2018-10-17T01:31:49.094Z,47.90
2018-10-17T01:32:49.067Z,43.30
2018-10-17T01:33:49.040Z,48.30
2018-10-17T01:34:49.012Z,42.80
2018-10-17T01:35:48.985Z,44.20
2018-10-17T01:36:48.957Z,52.60
2018-10-17T01:37:48.933Z,47.90
2018-10-17T01:38:48.904Z,52.80
2018-10-17T01:39:48.877Z,49.40
2018-10-17T01:40:48.850Z,63.80
2018-10-17T01:41:48.823Z,58.80
2018-10-17T01:42:48.793Z,57.20
2018-10-17T01:43:48.767Z,61.10
2018-10-17T01:44:48.740Z,59.70
2018-10-17T01:45:48.714Z,54.60
2018-10-17T01:46:48.688Z,48.70
2018-10-17T01:47:48.659Z,48.50
2018-10-17T01:48:48.631Z,46.80
2018-10-17T01:49:48.605Z,40.70
2018-10-17T01:50:48.580Z,44.50
2018-10-17T01:51:48.549Z,41.40
2018-10-17T01:52:48.523Z,39.20
2018-10-17T01:53:48.496Z,43.30
2018-10-17T01:54:48.469Z,43.10
2018-10-17T01:55:48.442Z,47.60
2018-10-17T01:56:48.416Z,50.60
2018-10-17T01:57:48.390Z,62.60
2018-10-17T01:58:48.359Z,77.50
2018-10-17T01:59:48.331Z,78.30
2018-10-17T02:00:48.304Z,58.80
2018-10-17T02:01:48.277Z,66.80
2018-10-17T02:02:48.251Z,69.70
2018-10-17T02:03:48.224Z,63.60
2018-10-17T02:04:48.197Z,59.90
2018-10-17T02:05:48.171Z,68.40
2018-10-17T02:06:48.143Z,82.30
2018-10-17T02:07:48.114Z,61.30
2018-10-17T02:08:48.088Z,57.40
2018-10-17T02:09:48.059Z,64.90
2018-10-17T02:10:48.033Z,68.10
2018-10-17T02:11:48.005Z,60.20
2018-10-17T02:12:47.977Z,79.30
2018-10-17T02:13:47.953Z,76.20
2018-10-17T02:14:47.923Z,56.00
2018-10-17T02:15:47.898Z,68.80
2018-10-17T02:16:47.867Z,63.20
2018-10-17T02:17:47.843Z,45.70
2018-10-17T02:18:47.815Z,45.80
2018-10-17T02:19:47.789Z,46.40
2018-10-17T02:20:47.760Z,45.20
2018-10-17T02:21:47.732Z,39.60
2018-10-17T02:22:47.706Z,43.00
2018-10-17T02:23:47.677Z,40.10
2018-10-17T02:24:47.650Z,40.60
2018-10-17T02:25:47.622Z,37.30
2018-10-17T02:26:47.594Z,37.90
2018-10-17T02:27:47.568Z,34.70
2018-10-17T02:28:47.543Z,33.30
2018-10-17T02:29:47.529Z,37.90
2018-10-17T02:30:47.485Z,34.90
2018-10-17T02:31:47.459Z,34.40
2018-10-17T02:32:47.431Z,37.90
2018-10-17T02:33:47.406Z,40.10
2018-10-17T02:34:47.380Z,35.90
2018-10-17T02:35:47.349Z,36.70
2018-10-17T02:36:47.321Z,33.20
2018-10-17T02:37:47.294Z,39.30
2018-10-17T02:38:47.268Z,38.90
2018-10-17T02:39:47.344Z,47.40
2018-10-17T02:40:47.213Z,44.50
2018-10-17T02:41:47.184Z,42.90
2018-10-17T02:42:47.157Z,36.00
2018-10-17T02:43:47.129Z,37.30
2018-10-17T02:44:47.102Z,31.80
2018-10-17T02:45:47.077Z,35.50
2018-10-17T02:46:47.046Z,35.40
2018-10-17T02:47:47.019Z,46.70
2018-10-17T02:48:46.993Z,55.40
2018-10-17T02:49:46.966Z,81.50
2018-10-17T02:50:46.938Z,76.50
2018-10-17T02:51:46.909Z,86.30
2018-10-17T02:52:46.884Z,54.90
2018-10-17T02:53:46.856Z,48.50
2018-10-17T02:54:46.828Z,42.10
2018-10-17T02:55:46.801Z,45.00
2018-10-17T02:56:46.773Z,38.00
2018-10-17T02:57:46.746Z,37.30
2018-10-17T02:58:46.717Z,37.30
2018-10-17T02:59:46.692Z,43.90
2018-10-17T03:00:46.663Z,50.10
2018-10-17T03:01:46.636Z,67.30
2018-10-17T03:02:46.609Z,83.70
2018-10-17T03:03:46.581Z,124.40
2018-10-17T03:04:46.554Z,211.10
2018-10-17T03:05:46.527Z,169.90
2018-10-17T03:06:46.501Z,84.10
2018-10-17T03:07:46.471Z,99.20
2018-10-17T03:08:46.444Z,97.40
2018-10-17T03:09:46.418Z,327.60
2018-10-17T03:10:46.393Z,204.40
2018-10-17T03:11:46.362Z,114.60
2018-10-17T03:12:46.335Z,98.30
2018-10-17T03:13:46.313Z,191.90
2018-10-17T03:14:46.281Z,379.30
2018-10-17T03:15:46.258Z,159.90
2018-10-17T03:16:46.225Z,202.00
2018-10-17T03:17:46.232Z,383.10
2018-10-17T03:18:46.169Z,463.10
2018-10-17T03:19:46.142Z,528.10
2018-10-17T03:20:46.115Z,641.70
2018-10-17T03:21:46.089Z,644.50
2018-10-17T03:22:46.059Z,761.60
2018-10-17T03:23:46.034Z,525.50
2018-10-17T03:24:46.007Z,440.10
2018-10-17T03:25:45.978Z,546.60
2018-10-17T03:26:45.949Z,675.20
2018-10-17T03:27:45.976Z,831.20
2018-10-17T03:28:45.896Z,762.30
2018-10-17T03:29:45.867Z,818.90
2018-10-17T03:30:45.841Z,573.50
2018-10-17T03:31:45.819Z,649.30
2018-10-17T03:32:45.788Z,587.50
2018-10-17T03:33:45.759Z,641.70
2018-10-17T03:34:45.730Z,659.50
2018-10-17T03:35:45.721Z,729.70
2018-10-17T03:36:45.680Z,617.80
2018-10-17T03:37:45.649Z,395.40
2018-10-17T03:38:45.621Z,356.40
2018-10-17T03:39:45.594Z,390.00
2018-10-17T03:40:45.570Z,292.70
2018-10-17T03:41:45.539Z,245.20
2018-10-17T03:42:46.496Z,213.30
2018-10-17T03:43:45.484Z,175.40
2018-10-17T03:44:45.459Z,194.40
2018-10-17T03:45:45.430Z,227.60
2018-10-17T03:46:45.402Z,144.20
2018-10-17T03:47:45.374Z,148.90
2018-10-17T03:48:45.347Z,218.60
2018-10-17T03:49:45.371Z,305.90
2018-10-17T03:50:45.295Z,244.50
2018-10-17T03:51:45.264Z,176.90
2018-10-17T03:52:45.237Z,185.00
2018-10-17T03:53:45.217Z,179.70
2018-10-17T03:54:45.185Z,194.20
2018-10-17T03:55:45.157Z,183.80
2018-10-17T03:56:45.127Z,175.60
2018-10-17T03:57:45.099Z,173.90
2018-10-17T03:58:45.074Z,159.30
2018-10-17T03:59:45.142Z,165.80
2018-10-17T04:00:45.017Z,138.20
2018-10-17T04:01:44.988Z,172.80
2018-10-17T04:02:44.961Z,148.80
2018-10-17T04:03:44.933Z,122.20
2018-10-17T04:04:44.906Z,128.20
2018-10-17T04:05:44.880Z,117.50
2018-10-17T04:06:44.852Z,118.10
2018-10-17T04:07:44.840Z,121.20
2018-10-17T04:08:44.802Z,122.50
2018-10-17T04:09:44.772Z,123.30
2018-10-17T04:10:44.742Z,156.30
2018-10-17T04:11:44.717Z,179.90
2018-10-17T04:12:44.688Z,168.20
2018-10-17T04:13:44.661Z,119.60
2018-10-17T04:14:44.633Z,136.30
2018-10-17T04:15:44.605Z,235.30
2018-10-17T04:16:44.577Z,427.00
2018-10-17T04:17:44.550Z,292.60
2018-10-17T04:18:44.522Z,259.20
2018-10-17T04:19:44.496Z,204.50
2018-10-17T04:20:44.495Z,198.00
2018-10-17T04:21:44.441Z,186.80
2018-10-17T04:22:44.532Z,265.10
2018-10-17T04:23:44.386Z,297.60
2018-10-17T04:24:44.360Z,404.30
2018-10-17T04:25:44.332Z,412.10
2018-10-17T04:26:44.303Z,563.50
2018-10-17T04:27:44.276Z,565.00
2018-10-17T04:28:44.249Z,529.90
2018-10-17T04:29:44.225Z,565.80
2018-10-17T04:30:44.194Z,347.70
2018-10-17T04:31:44.166Z,425.50
2018-10-17T04:32:44.145Z,213.80
2018-10-17T04:33:44.113Z,323.60
2018-10-17T04:34:44.085Z,368.60
2018-10-17T04:35:44.056Z,359.20
2018-10-17T04:36:44.030Z,360.30
2018-10-17T04:37:44.008Z,372.20
2018-10-17T04:38:43.974Z,332.90
2018-10-17T04:39:43.946Z,510.50
2018-10-17T04:40:43.919Z,302.80
2018-10-17T04:41:43.894Z,270.60
2018-10-17T04:42:43.865Z,336.80
2018-10-17T04:43:43.837Z,380.00
2018-10-17T04:44:43.810Z,411.00
2018-10-17T04:45:43.789Z,220.70
2018-10-17T04:46:43.757Z,252.80
2018-10-17T04:47:43.784Z,173.40
2018-10-17T04:48:43.701Z,126.50
2018-10-17T04:49:43.675Z,93.50
2018-10-17T04:50:43.644Z,104.60
2018-10-17T04:51:43.618Z,126.90
2018-10-17T04:52:43.591Z,115.60
2018-10-17T04:53:43.563Z,120.50
2018-10-17T04:54:43.536Z,117.40
2018-10-17T04:55:43.507Z,131.00
2018-10-17T04:56:43.481Z,122.00
2018-10-17T04:57:43.452Z,118.40
2018-10-17T04:58:43.424Z,105.80
2018-10-17T04:59:43.396Z,128.30
2018-10-17T05:00:43.374Z,144.10
2018-10-17T05:01:43.344Z,125.30
2018-10-17T05:02:43.318Z,119.90
2018-10-17T05:03:43.287Z,123.40
2018-10-17T05:04:43.364Z,107.30
2018-10-17T05:05:43.230Z,119.60
2018-10-17T05:06:43.253Z,119.90
2018-10-17T05:07:43.179Z,145.40
2018-10-17T05:08:43.149Z,153.70
2018-10-17T05:09:43.122Z,157.00
2018-10-17T05:10:43.093Z,136.60
2018-10-17T05:11:43.064Z,142.10
2018-10-17T05:12:43.039Z,287.70
2018-10-17T05:13:43.010Z,411.50
2018-10-17T05:14:42.987Z,211.00
2018-10-17T05:15:42.955Z,292.40
2018-10-17T05:16:42.930Z,183.00
2018-10-17T05:17:42.901Z,318.50
2018-10-17T05:18:42.874Z,417.10
2018-10-17T05:19:42.846Z,326.10
2018-10-17T05:20:42.818Z,378.20
2018-10-17T05:21:42.790Z,339.70
2018-10-17T05:22:42.773Z,270.30
2018-10-17T05:23:42.735Z,445.80
2018-10-17T05:24:42.709Z,421.60
2018-10-17T05:25:42.682Z,354.80
2018-10-17T05:26:42.653Z,254.30
2018-10-17T05:27:42.626Z,251.00
2018-10-17T05:28:42.599Z,202.60
2018-10-17T05:29:42.675Z,766.40
2018-10-17T05:30:42.547Z,547.20
2018-10-17T05:31:42.516Z,653.20
2018-10-17T05:32:42.489Z,523.70
2018-10-17T05:33:42.465Z,439.00
2018-10-17T05:34:42.435Z,424.10
2018-10-17T05:35:42.408Z,389.30
2018-10-17T05:36:42.381Z,609.90
2018-10-17T05:37:42.365Z,658.10
2018-10-17T05:38:42.326Z,596.10
2018-10-17T05:39:42.301Z,559.40
2018-10-17T05:40:42.271Z,630.10
2018-10-17T05:41:42.246Z,733.10
2018-10-17T05:42:42.216Z,690.00
2018-10-17T05:43:42.189Z,669.40
2018-10-17T05:44:42.164Z,868.60
2018-10-17T05:45:42.135Z,634.60
2018-10-17T05:46:42.109Z,617.80
2018-10-17T05:47:42.083Z,566.50
2018-10-17T05:48:42.053Z,584.60
2018-10-17T05:49:42.026Z,819.40
2018-10-17T05:50:41.998Z,477.60
2018-10-17T05:51:41.974Z,581.40
2018-10-17T05:52:41.943Z,653.00
2018-10-17T05:53:41.918Z,390.10
2018-10-17T05:54:41.889Z,585.80
2018-10-17T05:55:41.918Z,548.20
2018-10-17T05:56:41.835Z,784.20
2018-10-17T05:57:41.805Z,529.00
2018-10-17T05:58:41.779Z,242.30
2018-10-17T05:59:41.753Z,237.60
2018-10-17T06:00:41.724Z,451.10
2018-10-17T06:01:41.796Z,244.90
2018-10-17T06:02:41.669Z,215.50
2018-10-17T06:03:41.640Z,293.30
2018-10-17T06:04:41.613Z,311.40
2018-10-17T06:05:41.587Z,354.20
2018-10-17T06:06:41.558Z,470.50
2018-10-17T06:07:41.533Z,406.70
2018-10-17T06:08:41.506Z,357.80
2018-10-17T06:09:41.480Z,633.00
2018-10-17T06:10:41.449Z,524.20
2018-10-17T06:11:41.426Z,436.30
2018-10-17T06:12:41.397Z,319.70
2018-10-17T06:13:41.370Z,508.00
2018-10-17T06:14:41.341Z,719.20
2018-10-17T06:15:41.313Z,787.60
2018-10-17T06:16:41.301Z,785.00
2018-10-17T06:17:41.258Z,825.30
2018-10-17T06:18:41.231Z,598.40
2018-10-17T06:19:41.204Z,582.10
2018-10-17T06:20:41.175Z,639.30
2018-10-17T06:21:41.149Z,689.20
2018-10-17T06:22:41.121Z,484.60
2018-10-17T06:23:41.094Z,425.60
2018-10-17T06:24:41.071Z,413.30
2018-10-17T06:25:41.047Z,343.50
2018-10-17T06:26:41.013Z,295.80
2018-10-17T06:27:40.984Z,197.00
2018-10-17T06:28:40.959Z,204.20
2018-10-17T06:29:40.931Z,187.20
2018-10-17T06:30:40.986Z,236.40
2018-10-17T06:31:40.875Z,203.60
2018-10-17T06:32:40.850Z,236.80
2018-10-17T06:33:40.822Z,350.10
2018-10-17T06:34:40.846Z,220.40
2018-10-17T06:35:40.768Z,248.30
2018-10-17T06:36:40.740Z,266.00
2018-10-17T06:37:40.713Z,271.50
2018-10-17T06:38:40.687Z,324.70
2018-10-17T06:39:40.662Z,457.80
2018-10-17T06:40:40.633Z,400.00
2018-10-17T06:41:40.606Z,496.20
2018-10-17T06:42:40.592Z,502.50
2018-10-17T06:43:40.661Z,492.50
2018-10-17T06:44:40.524Z,503.80
2018-10-17T06:45:40.510Z,358.50
2018-10-17T06:46:40.471Z,385.30
2018-10-17T06:47:40.444Z,331.10
2018-10-17T06:48:40.419Z,378.10
2018-10-17T06:49:40.391Z,283.80
2018-10-17T06:50:40.363Z,300.80
2018-10-17T06:51:40.336Z,333.60
2018-10-17T06:52:40.309Z,222.50
2018-10-17T06:53:40.344Z,271.90
2018-10-17T06:54:40.261Z,259.80
2018-10-17T06:55:40.230Z,179.30
2018-10-17T06:56:40.207Z,156.40
2018-10-17T06:57:40.177Z,143.70
2018-10-17T06:58:40.150Z,207.80
2018-10-17T06:59:40.124Z,226.10
2018-10-17T07:00:40.097Z,196.30
2018-10-17T07:01:40.172Z,230.30
2018-10-17T07:02:40.041Z,155.00
2018-10-17T07:03:40.017Z,257.10
2018-10-17T07:04:39.990Z,123.20
2018-10-17T07:05:39.963Z,157.00
2018-10-17T07:06:39.935Z,217.90
2018-10-17T07:07:39.911Z,211.80
2018-10-17T07:08:39.985Z,132.00
2018-10-17T07:09:39.859Z,104.60
2018-10-17T07:10:39.831Z,92.40
2018-10-17T07:11:39.806Z,107.50
2018-10-17T07:12:39.781Z,93.70
2018-10-17T07:13:39.752Z,107.70
2018-10-17T07:14:39.728Z,86.70
2018-10-17T07:15:39.877Z,60.30
2018-10-17T07:16:39.679Z,61.90
2018-10-17T07:17:39.650Z,52.70
2018-10-17T07:18:39.624Z,54.30
2018-10-17T07:19:39.598Z,51.10
2018-10-17T07:20:39.612Z,51.70
2018-10-17T07:21:39.545Z,49.00
2018-10-17T07:22:39.520Z,49.20
2018-10-17T07:23:39.495Z,48.70
2018-10-17T07:24:39.470Z,49.40
2018-10-17T07:25:39.447Z,49.50
2018-10-17T07:26:39.418Z,46.70
2018-10-17T07:27:39.394Z,45.80
2018-10-17T07:28:39.416Z,41.20
2018-10-17T07:29:39.528Z,41.80
2018-10-17T07:30:39.317Z,39.30
2018-10-17T07:31:39.292Z,41.80
2018-10-17T07:32:39.268Z,43.60
2018-10-17T07:33:39.243Z,41.60
2018-10-17T07:34:39.217Z,37.70
2018-10-17T07:35:39.213Z,39.20
2018-10-17T07:36:39.167Z,37.30
2018-10-17T07:37:39.142Z,36.60
2018-10-17T07:38:39.118Z,37.00
2018-10-17T07:39:39.093Z,37.60
2018-10-17T07:40:39.070Z,36.90
2018-10-17T07:41:39.046Z,36.50
2018-10-17T07:42:39.020Z,36.90
2018-10-17T07:43:38.996Z,34.60
2018-10-17T07:44:38.973Z,35.70
2018-10-17T07:45:38.956Z,36.00
2018-10-17T07:46:38.926Z,35.70
2018-10-17T07:47:38.903Z,37.00
2018-10-17T07:48:38.880Z,35.10
2018-10-17T07:49:38.859Z,36.10
2018-10-17T07:50:38.834Z,38.90
2018-10-17T07:51:38.810Z,41.20
2018-10-17T07:52:38.788Z,48.00
2018-10-17T07:53:38.880Z,47.10
2018-10-17T07:54:38.744Z,45.30
2018-10-17T07:55:38.722Z,43.30
2018-10-17T07:56:38.698Z,42.70
2018-10-17T07:57:38.678Z,39.70
2018-10-17T07:58:38.654Z,38.80
2018-10-17T07:59:38.677Z,37.30
2018-10-17T08:00:38.612Z,36.80
2018-10-17T08:01:38.591Z,35.40
2018-10-17T08:02:38.567Z,35.60
2018-10-17T08:03:38.546Z,35.10
2018-10-17T08:04:38.524Z,33.10
2018-10-17T08:05:38.504Z,32.40
2018-10-17T08:06:38.500Z,33.40
2018-10-17T08:07:38.459Z,31.40
2018-10-17T08:08:38.439Z,32.20
2018-10-17T08:09:38.419Z,32.00
2018-10-17T08:10:38.397Z,30.70
2018-10-17T08:11:38.376Z,32.70
2018-10-17T08:12:38.356Z,31.60
2018-10-17T08:13:38.350Z,31.10
2018-10-17T08:14:38.313Z,32.60
2018-10-17T08:15:38.292Z,33.40
2018-10-17T08:16:38.271Z,32.90
2018-10-17T08:17:38.251Z,33.60
2018-10-17T08:18:38.230Z,32.80
2018-10-17T08:19:38.211Z,33.50
2018-10-17T08:20:38.193Z,33.20
2018-10-17T08:21:38.169Z,33.10
2018-10-17T08:22:38.148Z,32.40
2018-10-17T08:23:38.128Z,32.30
2018-10-17T08:24:38.109Z,32.90
2018-10-17T08:25:38.090Z,32.10
2018-10-17T08:26:38.068Z,32.60
2018-10-17T08:27:38.101Z,34.60
2018-10-17T08:28:38.028Z,34.90
2018-10-17T08:29:38.009Z,32.30
2018-10-17T08:30:37.989Z,35.50
2018-10-17T08:31:37.968Z,34.80
2018-10-17T08:32:37.948Z,35.80
2018-10-17T08:33:37.928Z,35.50
2018-10-17T08:34:37.908Z,34.70
2018-10-17T08:35:37.906Z,34.70
2018-10-17T08:36:38.066Z,34.20
2018-10-17T08:37:38.225Z,34.90
2018-10-17T08:38:37.829Z,34.50
2018-10-17T08:39:37.813Z,35.70
2018-10-17T08:40:37.790Z,35.40
2018-10-17T08:41:37.770Z,35.60
2018-10-17T08:42:37.755Z,38.50
2018-10-17T08:43:37.731Z,37.40
2018-10-17T08:44:37.711Z,37.30
2018-10-17T08:45:37.692Z,36.30
2018-10-17T08:46:37.673Z,32.90
2018-10-17T08:47:37.652Z,33.50
2018-10-17T08:48:37.631Z,36.50
2018-10-17T08:49:37.614Z,36.20
2018-10-17T08:50:37.605Z,35.30
2018-10-17T08:51:37.574Z,35.40
2018-10-17T08:52:37.555Z,34.80
2018-10-17T08:53:37.575Z,35.70
2018-10-17T08:54:37.515Z,37.10
2018-10-17T08:55:37.494Z,36.30
2018-10-17T08:56:37.479Z,34.30
2018-10-17T08:57:37.521Z,36.80
2018-10-17T08:58:37.437Z,34.70
2018-10-17T08:59:37.419Z,37.00
2018-10-17T09:00:37.399Z,34.40
2018-10-17T09:01:37.378Z,32.10
2018-10-17T09:02:37.360Z,33.80
2018-10-17T09:03:37.340Z,37.50
2018-10-17T09:04:37.321Z,33.30
2018-10-17T09:05:37.302Z,33.20
2018-10-17T09:06:37.283Z,33.60
2018-10-17T09:07:37.268Z,32.90
2018-10-17T09:08:37.255Z,33.90
2018-10-17T09:09:37.228Z,32.90
2018-10-17T09:10:37.210Z,34.70
2018-10-17T09:11:37.188Z,35.00
2018-10-17T09:12:37.170Z,34.20
2018-10-17T09:13:37.247Z,35.80
2018-10-17T09:14:37.134Z,35.00
2018-10-17T09:15:38.542Z,36.30
2018-10-17T09:16:37.178Z,34.10
2018-10-17T09:17:37.078Z,33.50
2018-10-17T09:18:37.060Z,32.00
2018-10-17T09:19:37.208Z,33.20
2018-10-17T09:20:37.431Z,34.70
2018-10-17T09:21:37.356Z,35.00
2018-10-17T09:22:37.072Z,34.70
2018-10-17T09:23:36.969Z,34.60
2018-10-17T09:24:36.951Z,33.20
2018-10-17T09:25:37.016Z,34.80
2018-10-17T09:26:36.915Z,35.20
2018-10-17T09:27:36.899Z,34.80
2018-10-17T09:28:36.879Z,35.40
2018-10-17T09:29:36.861Z,33.00
2018-10-17T09:30:36.918Z,34.20
2018-10-17T09:31:36.825Z,33.70
2018-10-17T09:32:36.807Z,33.70
2018-10-17T09:33:36.788Z,34.30
2018-10-17T09:34:36.775Z,34.80
2018-10-17T09:35:36.822Z,31.00
2018-10-17T09:36:36.736Z,32.50
2018-10-17T09:37:36.719Z,32.70
2018-10-17T09:38:36.700Z,31.90
2018-10-17T09:39:36.686Z,31.10
2018-10-17T09:40:36.665Z,32.80
2018-10-17T09:41:36.648Z,32.40
2018-10-17T09:42:36.632Z,32.50
2018-10-17T09:43:36.615Z,34.90
2018-10-17T09:44:36.596Z,31.20
2018-10-17T09:45:36.579Z,32.90
2018-10-17T09:46:36.562Z,30.90
2018-10-17T09:47:36.543Z,31.20
2018-10-17T09:48:36.527Z,31.80
2018-10-17T09:49:36.511Z,32.90
2018-10-17T09:50:36.491Z,30.30
2018-10-17T09:51:36.474Z,31.40
2018-10-17T09:52:36.457Z,31.90
2018-10-17T09:53:36.438Z,31.70
2018-10-17T09:54:36.420Z,31.70
2018-10-17T09:55:36.404Z,29.90
2018-10-17T09:56:36.386Z,29.30
2018-10-17T09:57:36.369Z,30.80
2018-10-17T09:58:36.352Z,28.90
2018-10-17T09:59:36.335Z,29.70
2018-10-17T10:00:36.317Z,27.70
2018-10-17T10:01:36.301Z,28.50
2018-10-17T10:02:36.284Z,31.20
2018-10-17T10:03:36.266Z,28.30
2018-10-17T10:04:36.249Z,29.00
2018-10-17T10:05:36.232Z,28.40
2018-10-17T10:06:36.215Z,28.80
2018-10-17T10:07:36.198Z,26.70
2018-10-17T10:08:36.182Z,30.30
2018-10-17T10:09:36.164Z,28.70
2018-10-17T10:10:36.153Z,27.50
2018-10-17T10:11:36.130Z,26.20
2018-10-17T10:12:36.115Z,26.10
2018-10-17T10:13:36.099Z,26.50
2018-10-17T10:14:36.083Z,25.60
2018-10-17T10:15:36.064Z,26.60
2018-10-17T10:16:36.047Z,27.00
2018-10-17T10:17:36.063Z,29.20
2018-10-17T10:18:36.013Z,25.60
2018-10-17T10:19:35.997Z,26.70
2018-10-17T10:20:35.982Z,25.90
2018-10-17T10:21:35.966Z,25.10
2018-10-17T10:22:35.963Z,25.90
2018-10-17T10:23:35.983Z,26.70
2018-10-17T10:24:35.954Z,25.50
2018-10-17T10:25:35.900Z,27.60
2018-10-17T10:26:35.889Z,30.40
2018-10-17T10:27:35.867Z,26.10
2018-10-17T10:28:35.894Z,26.40
2018-10-17T10:29:35.878Z,26.30
2018-10-17T10:30:35.818Z,27.30
2018-10-17T10:31:35.798Z,26.50
2018-10-17T10:32:35.783Z,26.80
2018-10-17T10:33:35.776Z,25.50
2018-10-17T10:34:35.750Z,25.70
2018-10-17T10:35:35.734Z,28.70
2018-10-17T10:36:35.716Z,24.20
2018-10-17T10:37:35.701Z,24.00
2018-10-17T10:38:35.685Z,22.90
2018-10-17T10:39:35.668Z,23.50
2018-10-17T10:40:35.714Z,24.50
2018-10-17T10:41:35.636Z,24.10
2018-10-17T10:42:35.618Z,23.50
2018-10-17T10:43:35.604Z,25.00
2018-10-17T10:44:35.588Z,22.50
2018-10-17T10:45:35.671Z,24.00
2018-10-17T10:46:35.555Z,22.70
2018-10-17T10:47:35.542Z,24.40
2018-10-17T10:48:35.526Z,23.80
2018-10-17T10:49:35.509Z,27.30
2018-10-17T10:50:35.490Z,25.00
2018-10-17T10:51:35.565Z,24.30
2018-10-17T10:52:35.460Z,25.10
2018-10-17T10:53:35.443Z,28.40
2018-10-17T10:54:35.424Z,24.30
2018-10-17T10:55:35.409Z,23.30
2018-10-17T10:56:35.397Z,22.40
2018-10-17T10:57:35.376Z,22.40
2018-10-17T10:58:35.529Z,23.90
2018-10-17T10:59:35.571Z,25.40
2018-10-17T11:00:35.328Z,23.80
2018-10-17T11:01:35.313Z,24.40
2018-10-17T11:02:35.295Z,23.90
2018-10-17T11:03:35.280Z,23.50
2018-10-17T11:04:35.331Z,24.60
2018-10-17T11:05:35.446Z,22.00
2018-10-17T11:06:35.232Z,23.30
2018-10-17T11:07:35.217Z,23.90
2018-10-17T11:08:35.201Z,24.90
2018-10-17T11:09:35.184Z,26.00
2018-10-17T11:10:35.167Z,24.60
2018-10-17T11:11:35.151Z,24.30
2018-10-17T11:12:35.134Z,23.30
2018-10-17T11:13:35.120Z,21.80
2018-10-17T11:14:35.125Z,23.00
2018-10-17T11:15:35.087Z,22.70
2018-10-17T11:16:35.071Z,21.40
2018-10-17T11:17:35.056Z,21.50
2018-10-17T11:18:35.042Z,25.10
2018-10-17T11:19:35.028Z,21.40
2018-10-17T11:20:35.004Z,21.30
2018-10-17T11:21:34.990Z,22.50
2018-10-17T11:22:34.974Z,23.30
2018-10-17T11:23:34.957Z,21.90
2018-10-17T11:24:34.941Z,20.40
2018-10-17T11:25:34.924Z,20.30
2018-10-17T11:26:34.907Z,18.60
2018-10-17T11:27:34.892Z,21.40
2018-10-17T11:28:34.875Z,18.70
2018-10-17T11:29:34.859Z,24.30
2018-10-17T11:30:34.844Z,20.40
2018-10-17T11:31:34.829Z,23.50
2018-10-17T11:32:34.812Z,20.50
2018-10-17T11:33:34.796Z,20.50
2018-10-17T11:34:34.778Z,20.10
2018-10-17T11:35:34.764Z,20.40
2018-10-17T11:36:34.747Z,27.10
2018-10-17T11:37:34.825Z,19.20
2018-10-17T11:38:34.714Z,20.30
2018-10-17T11:39:34.697Z,19.20
2018-10-17T11:40:34.744Z,18.60
2018-10-17T11:41:34.681Z,23.20
2018-10-17T11:42:34.651Z,21.50
2018-10-17T11:43:34.634Z,20.20
2018-10-17T11:44:34.618Z,21.20
2018-10-17T11:45:34.602Z,20.60
2018-10-17T11:46:34.589Z,21.50
2018-10-17T11:47:34.574Z,18.90
2018-10-17T11:48:34.554Z,19.30
2018-10-17T11:49:34.538Z,23.00
2018-10-17T11:50:34.585Z,18.50
2018-10-17T11:51:34.507Z,20.20
2018-10-17T11:52:34.490Z,20.00
2018-10-17T11:53:34.472Z,18.60
2018-10-17T11:54:34.455Z,17.10
2018-10-17T11:55:34.440Z,16.80
2018-10-17T11:56:34.425Z,19.60
2018-10-17T11:57:34.407Z,17.90
2018-10-17T11:58:34.390Z,17.50
2018-10-17T11:59:34.390Z,16.90
2018-10-17T12:00:34.358Z,16.50
2018-10-17T12:01:34.351Z,18.20
2018-10-17T12:02:34.325Z,22.90
2018-10-17T12:03:34.470Z,18.60
2018-10-17T12:04:34.384Z,18.60
2018-10-17T12:05:34.806Z,17.40
2018-10-17T12:06:34.326Z,18.60
2018-10-17T12:07:34.242Z,23.20
2018-10-17T12:08:34.227Z,18.10
2018-10-17T12:09:34.212Z,19.80
2018-10-17T12:10:34.194Z,18.10
2018-10-17T12:11:34.214Z,18.00
2018-10-17T12:12:34.164Z,21.20
2018-10-17T12:13:34.146Z,20.90
2018-10-17T12:14:34.131Z,17.10
2018-10-17T12:15:34.112Z,16.60
2018-10-17T12:16:34.094Z,16.10
2018-10-17T12:17:34.079Z,16.50
2018-10-17T12:18:34.063Z,18.10
2018-10-17T12:19:34.060Z,18.80
2018-10-17T12:20:34.031Z,20.40
2018-10-17T12:21:34.079Z,17.40
2018-10-17T12:22:33.996Z,18.00
2018-10-17T12:23:33.980Z,19.10
2018-10-17T12:24:33.964Z,16.60
2018-10-17T12:25:33.947Z,16.80
2018-10-17T12:26:33.930Z,19.50
2018-10-17T12:27:33.916Z,16.80
2018-10-17T12:28:34.023Z,16.80
2018-10-17T12:29:33.880Z,18.10
2018-10-17T12:30:33.863Z,15.00
2018-10-17T12:31:33.848Z,16.80
2018-10-17T12:32:33.831Z,16.30
2018-10-17T12:33:33.815Z,15.00
2018-10-17T12:34:33.797Z,20.20
2018-10-17T12:35:33.780Z,17.20
2018-10-17T12:36:33.767Z,17.40
2018-10-17T12:37:33.749Z,16.00
2018-10-17T12:38:33.731Z,13.60
2018-10-17T12:39:33.870Z,14.80
2018-10-17T12:40:33.860Z,14.40
2018-10-17T12:41:33.733Z,14.90
2018-10-17T12:42:33.665Z,13.50
2018-10-17T12:43:33.651Z,16.90
2018-10-17T12:44:33.635Z,14.70